sensor_id;sensor_type;location;lat;lon;timestamp;pressure;altitude;pressure_sealevel;temperature;humidity
79378;BME280;68959;53.132;17.984;2023-04-24T00:01:23;100077.61;;;14.04;73.63
79378;BME280;68959;53.132;17.984;2023-04-24T00:03:50;100076.17;;;14.05;73.86
79378;BME280;68959;53.132;17.984;2023-04-24T00:06:16;100076.14;;;14.06;73.45
79378;BME280;68959;53.132;17.984;2023-04-24T00:08:43;100078.23;;;14.02;73.40
79378;BME280;68959;53.132;17.984;2023-04-24T00:11:10;100077.79;;;14.02;73.13
79378;BME280;68959;53.132;17.984;2023-04-24T00:13:37;100071.92;;;13.98;73.22
79378;BME280;68959;53.132;17.984;2023-04-24T00:16:04;100070.98;;;13.95;73.38
79378;BME280;68959;53.132;17.984;2023-04-24T00:18:31;100065.58;;;13.94;73.54
79378;BME280;68959;53.132;17.984;2023-04-24T00:20:58;100061.67;;;13.88;74.11
79378;BME280;68959;53.132;17.984;2023-04-24T00:23:25;100059.00;;;13.83;74.01
79378;BME280;68959;53.132;17.984;2023-04-24T00:25:51;100054.23;;;13.80;74.19
79378;BME280;68959;53.132;17.984;2023-04-24T00:28:18;100057.17;;;13.78;74.05
79378;BME280;68959;53.132;17.984;2023-04-24T00:30:44;100056.86;;;13.76;74.08
79378;BME280;68959;53.132;17.984;2023-04-24T00:33:11;100054.81;;;13.74;74.66
79378;BME280;68959;53.132;17.984;2023-04-24T00:35:38;100050.89;;;13.71;74.79
79378;BME280;68959;53.132;17.984;2023-04-24T00:38:04;100047.05;;;13.67;74.81
79378;BME280;68959;53.132;17.984;2023-04-24T00:40:31;100042.73;;;13.67;74.59
79378;BME280;68959;53.132;17.984;2023-04-24T00:42:58;100038.77;;;13.68;74.90
79378;BME280;68959;53.132;17.984;2023-04-24T00:45:25;100029.06;;;13.67;74.65
79378;BME280;68959;53.132;17.984;2023-04-24T00:47:52;100029.35;;;13.66;74.51
79378;BME280;68959;53.132;17.984;2023-04-24T00:50:20;100031.30;;;13.63;74.88
79378;BME280;68959;53.132;17.984;2023-04-24T00:52:47;100035.55;;;13.62;74.80
79378;BME280;68959;53.132;17.984;2023-04-24T00:55:14;100032.55;;;13.59;75.22
79378;BME280;68959;53.132;17.984;2023-04-24T00:57:41;100033.59;;;13.58;75.33
79378;BME280;68959;53.132;17.984;2023-04-24T01:00:08;100032.98;;;13.55;75.62
79378;BME280;68959;53.132;17.984;2023-04-24T01:02:43;100034.29;;;13.50;75.45
79378;BME280;68959;53.132;17.984;2023-04-24T01:05:12;100026.98;;;13.46;75.28
79378;BME280;68959;53.132;17.984;2023-04-24T01:07:41;100029.96;;;13.47;75.52
79378;BME280;68959;53.132;17.984;2023-04-24T01:10:11;100032.58;;;13.46;75.88
79378;BME280;68959;53.132;17.984;2023-04-24T01:12:39;100032.02;;;13.47;75.75
79378;BME280;68959;53.132;17.984;2023-04-24T01:15:06;100028.42;;;13.49;75.64
79378;BME280;68959;53.132;17.984;2023-04-24T01:17:35;100029.84;;;13.50;75.70
79378;BME280;68959;53.132;17.984;2023-04-24T01:20:02;100027.94;;;13.49;75.76
79378;BME280;68959;53.132;17.984;2023-04-24T01:22:34;100020.73;;;13.47;75.33
79378;BME280;68959;53.132;17.984;2023-04-24T01:25:01;100014.69;;;13.50;75.78
79378;BME280;68959;53.132;17.984;2023-04-24T01:27:30;100012.92;;;13.49;75.86
79378;BME280;68959;53.132;17.984;2023-04-24T01:29:57;100015.02;;;13.47;75.50
79378;BME280;68959;53.132;17.984;2023-04-24T01:32:26;100014.30;;;13.47;75.40
79378;BME280;68959;53.132;17.984;2023-04-24T01:34:54;100019.25;;;13.47;75.96
79378;BME280;68959;53.132;17.984;2023-04-24T01:37:21;100015.08;;;13.44;76.11
79378;BME280;68959;53.132;17.984;2023-04-24T01:39:49;100016.30;;;13.44;75.99
79378;BME280;68959;53.132;17.984;2023-04-24T01:42:16;100015.23;;;13.45;76.15
79378;BME280;68959;53.132;17.984;2023-04-24T01:44:43;100013.65;;;13.49;75.78
79378;BME280;68959;53.132;17.984;2023-04-24T01:47:10;100009.91;;;13.50;75.94
79378;BME280;68959;53.132;17.984;2023-04-24T01:49:38;100010.04;;;13.49;76.14
79378;BME280;68959;53.132;17.984;2023-04-24T01:52:05;100008.35;;;13.47;76.21
79378;BME280;68959;53.132;17.984;2023-04-24T01:54:32;100007.80;;;13.46;75.88
79378;BME280;68959;53.132;17.984;2023-04-24T01:56:59;100006.44;;;13.46;76.07
79378;BME280;68959;53.132;17.984;2023-04-24T01:59:28;100005.91;;;13.45;76.17
79378;BME280;68959;53.132;17.984;2023-04-24T02:01:56;100006.98;;;13.44;76.35
79378;BME280;68959;53.132;17.984;2023-04-24T02:04:23;100006.54;;;13.41;76.58
79378;BME280;68959;53.132;17.984;2023-04-24T02:06:50;100009.06;;;13.37;76.59
79378;BME280;68959;53.132;17.984;2023-04-24T02:09:17;100004.73;;;13.30;76.77
79378;BME280;68959;53.132;17.984;2023-04-24T02:11:43;100003.18;;;13.28;77.01
79378;BME280;68959;53.132;17.984;2023-04-24T02:14:10;99999.34;;;13.25;77.11
79378;BME280;68959;53.132;17.984;2023-04-24T02:16:40;99999.51;;;13.23;77.07
79378;BME280;68959;53.132;17.984;2023-04-24T02:19:06;99998.11;;;13.21;77.13
79378;BME280;68959;53.132;17.984;2023-04-24T02:21:33;99988.13;;;13.19;76.96
79378;BME280;68959;53.132;17.984;2023-04-24T02:24:02;99983.02;;;13.25;76.80
79378;BME280;68959;53.132;17.984;2023-04-24T02:26:28;99983.61;;;13.26;76.99
79378;BME280;68959;53.132;17.984;2023-04-24T02:28:57;99987.95;;;13.26;77.13
79378;BME280;68959;53.132;17.984;2023-04-24T02:31:24;99985.06;;;13.24;76.87
79378;BME280;68959;53.132;17.984;2023-04-24T02:33:51;99983.13;;;13.23;76.80
79378;BME280;68959;53.132;17.984;2023-04-24T02:36:17;99984.01;;;13.23;76.80
79378;BME280;68959;53.132;17.984;2023-04-24T02:38:44;99985.14;;;13.28;76.80
79378;BME280;68959;53.132;17.984;2023-04-24T02:41:13;99981.87;;;13.30;76.83
79378;BME280;68959;53.132;17.984;2023-04-24T02:43:40;99977.16;;;13.32;77.00
79378;BME280;68959;53.132;17.984;2023-04-24T02:46:06;99974.15;;;13.36;76.65
79378;BME280;68959;53.132;17.984;2023-04-24T02:48:33;99968.39;;;13.38;76.74
79378;BME280;68959;53.132;17.984;2023-04-24T02:51:00;99962.45;;;13.38;76.56
79378;BME280;68959;53.132;17.984;2023-04-24T02:53:26;99965.88;;;13.39;76.56
79378;BME280;68959;53.132;17.984;2023-04-24T02:55:53;99965.72;;;13.39;76.41
79378;BME280;68959;53.132;17.984;2023-04-24T02:58:20;99968.62;;;13.40;76.53
79378;BME280;68959;53.132;17.984;2023-04-24T03:00:47;99967.85;;;13.40;76.63
79378;BME280;68959;53.132;17.984;2023-04-24T03:03:14;99971.61;;;13.41;76.44
79378;BME280;68959;53.132;17.984;2023-04-24T03:05:41;99972.97;;;13.42;76.28
79378;BME280;68959;53.132;17.984;2023-04-24T03:08:08;99977.38;;;13.43;76.16
79378;BME280;68959;53.132;17.984;2023-04-24T03:10:36;99977.13;;;13.40;76.32
79378;BME280;68959;53.132;17.984;2023-04-24T03:13:03;99975.79;;;13.35;76.19
79378;BME280;68959;53.132;17.984;2023-04-24T03:15:30;99976.94;;;13.30;76.48
79378;BME280;68959;53.132;17.984;2023-04-24T03:17:56;99972.42;;;13.25;76.11
79378;BME280;68959;53.132;17.984;2023-04-24T03:20:23;99978.58;;;13.23;76.37
79378;BME280;68959;53.132;17.984;2023-04-24T03:22:50;99979.16;;;13.18;76.05
79378;BME280;68959;53.132;17.984;2023-04-24T03:25:17;99981.76;;;13.19;75.92
79378;BME280;68959;53.132;17.984;2023-04-24T03:27:43;99982.80;;;13.19;75.98
79378;BME280;68959;53.132;17.984;2023-04-24T03:30:28;99983.73;;;13.15;75.93
79378;BME280;68959;53.132;17.984;2023-04-24T03:32:58;99987.52;;;13.12;75.95
79378;BME280;68959;53.132;17.984;2023-04-24T03:35:27;99990.56;;;13.11;76.02
79378;BME280;68959;53.132;17.984;2023-04-24T03:37:54;99993.42;;;13.10;75.95
79378;BME280;68959;53.132;17.984;2023-04-24T03:40:51;99993.55;;;13.12;75.74
79378;BME280;68959;53.132;17.984;2023-04-24T03:43:31;99993.19;;;13.11;76.15
79378;BME280;68959;53.132;17.984;2023-04-24T03:46:00;99988.23;;;13.08;76.15
79378;BME280;68959;53.132;17.984;2023-04-24T03:48:27;99986.09;;;13.05;75.90
79378;BME280;68959;53.132;17.984;2023-04-24T03:50:54;99987.13;;;13.03;76.33
79378;BME280;68959;53.132;17.984;2023-04-24T03:53:21;99981.69;;;12.98;76.71
79378;BME280;68959;53.132;17.984;2023-04-24T03:55:49;99973.63;;;12.92;76.59
79378;BME280;68959;53.132;17.984;2023-04-24T03:58:16;99968.73;;;12.87;77.07
79378;BME280;68959;53.132;17.984;2023-04-24T04:00:44;99967.09;;;12.82;77.00
79378;BME280;68959;53.132;17.984;2023-04-24T04:03:39;99962.88;;;12.79;77.33
79378;BME280;68959;53.132;17.984;2023-04-24T04:06:06;99960.48;;;12.80;77.20
79378;BME280;68959;53.132;17.984;2023-04-24T04:08:33;99957.77;;;12.80;77.33
79378;BME280;68959;53.132;17.984;2023-04-24T04:10:59;99949.81;;;12.81;77.39
79378;BME280;68959;53.132;17.984;2023-04-24T04:13:26;99950.61;;;12.82;77.36
79378;BME280;68959;53.132;17.984;2023-04-24T04:15:53;99947.51;;;12.82;77.43
79378;BME280;68959;53.132;17.984;2023-04-24T04:18:20;99953.05;;;12.86;77.23
79378;BME280;68959;53.132;17.984;2023-04-24T04:20:47;99951.08;;;12.90;77.23
79378;BME280;68959;53.132;17.984;2023-04-24T04:23:14;99953.91;;;12.96;77.19
79378;BME280;68959;53.132;17.984;2023-04-24T04:25:51;99953.89;;;13.03;77.03
79378;BME280;68959;53.132;17.984;2023-04-24T04:28:19;99949.77;;;13.07;77.50
79378;BME280;68959;53.132;17.984;2023-04-24T04:30:46;99946.21;;;13.13;77.78
79378;BME280;68959;53.132;17.984;2023-04-24T04:33:14;99943.95;;;13.22;77.94
79378;BME280;68959;53.132;17.984;2023-04-24T04:35:41;99939.90;;;13.30;77.91
79378;BME280;68959;53.132;17.984;2023-04-24T04:38:07;99937.75;;;13.37;77.67
79378;BME280;68959;53.132;17.984;2023-04-24T04:40:48;99942.71;;;13.44;77.15
79378;BME280;68959;53.132;17.984;2023-04-24T04:43:15;99946.53;;;13.50;77.02
79378;BME280;68959;53.132;17.984;2023-04-24T04:45:47;99951.83;;;13.57;77.01
79378;BME280;68959;53.132;17.984;2023-04-24T04:48:37;99946.50;;;13.65;76.78
79378;BME280;68959;53.132;17.984;2023-04-24T04:51:05;99940.86;;;13.70;76.85
79378;BME280;68959;53.132;17.984;2023-04-24T04:53:32;99936.64;;;13.79;76.94
79378;BME280;68959;53.132;17.984;2023-04-24T04:55:58;99934.95;;;13.89;76.83
79378;BME280;68959;53.132;17.984;2023-04-24T04:58:44;99930.65;;;13.99;76.34
79378;BME280;68959;53.132;17.984;2023-04-24T05:01:13;99929.45;;;14.05;76.49
79378;BME280;68959;53.132;17.984;2023-04-24T05:03:42;99925.46;;;14.16;76.35
79378;BME280;68959;53.132;17.984;2023-04-24T05:06:10;99925.91;;;14.28;76.16
79378;BME280;68959;53.132;17.984;2023-04-24T05:08:38;99923.64;;;14.37;75.86
79378;BME280;68959;53.132;17.984;2023-04-24T05:11:08;99919.70;;;14.41;75.50
79378;BME280;68959;53.132;17.984;2023-04-24T05:13:35;99916.84;;;14.47;75.29
79378;BME280;68959;53.132;17.984;2023-04-24T05:16:02;99916.99;;;14.47;75.61
79378;BME280;68959;53.132;17.984;2023-04-24T05:18:29;99914.52;;;14.53;75.37
79378;BME280;68959;53.132;17.984;2023-04-24T05:20:56;99917.23;;;14.60;75.12
79378;BME280;68959;53.132;17.984;2023-04-24T05:23:24;99912.30;;;14.59;74.81
79378;BME280;68959;53.132;17.984;2023-04-24T05:25:52;99910.90;;;14.57;74.51
79378;BME280;68959;53.132;17.984;2023-04-24T05:28:20;99907.39;;;14.65;74.55
79378;BME280;68959;53.132;17.984;2023-04-24T05:30:54;99911.29;;;14.84;74.27
79378;BME280;68959;53.132;17.984;2023-04-24T05:33:25;99915.31;;;15.03;73.82
79378;BME280;68959;53.132;17.984;2023-04-24T05:35:52;99915.86;;;15.16;72.78
79378;BME280;68959;53.132;17.984;2023-04-24T05:38:19;99918.09;;;15.17;71.94
79378;BME280;68959;53.132;17.984;2023-04-24T05:40:46;99922.22;;;15.23;72.32
79378;BME280;68959;53.132;17.984;2023-04-24T05:43:15;99921.78;;;15.25;72.19
79378;BME280;68959;53.132;17.984;2023-04-24T05:45:42;99913.13;;;15.14;72.73
79378;BME280;68959;53.132;17.984;2023-04-24T05:48:08;99914.95;;;14.98;72.91
79378;BME280;68959;53.132;17.984;2023-04-24T05:50:36;99912.56;;;14.89;73.26
79378;BME280;68959;53.132;17.984;2023-04-24T05:53:03;99914.31;;;14.80;73.54
79378;BME280;68959;53.132;17.984;2023-04-24T05:55:33;99908.70;;;14.83;73.69
79378;BME280;68959;53.132;17.984;2023-04-24T05:58:00;99908.29;;;14.92;73.47
79378;BME280;68959;53.132;17.984;2023-04-24T06:00:27;99907.29;;;14.97;72.52
79378;BME280;68959;53.132;17.984;2023-04-24T06:03:00;99910.98;;;15.01;71.87
79378;BME280;68959;53.132;17.984;2023-04-24T06:05:27;99909.68;;;15.10;72.16
79378;BME280;68959;53.132;17.984;2023-04-24T06:07:53;99911.08;;;15.16;71.37
79378;BME280;68959;53.132;17.984;2023-04-24T06:10:21;99912.72;;;15.18;71.35
79378;BME280;68959;53.132;17.984;2023-04-24T06:12:50;99913.52;;;15.26;71.67
79378;BME280;68959;53.132;17.984;2023-04-24T06:15:17;99910.51;;;15.30;71.12
79378;BME280;68959;53.132;17.984;2023-04-24T06:17:57;99902.84;;;15.41;70.99
79378;BME280;68959;53.132;17.984;2023-04-24T06:20:24;99900.89;;;15.62;70.26
79378;BME280;68959;53.132;17.984;2023-04-24T06:22:51;99896.27;;;15.89;70.18
79378;BME280;68959;53.132;17.984;2023-04-24T06:25:18;99892.36;;;16.23;70.04
79378;BME280;68959;53.132;17.984;2023-04-24T06:27:45;99891.84;;;16.53;67.76
79378;BME280;68959;53.132;17.984;2023-04-24T06:30:12;99891.84;;;16.63;66.82
79378;BME280;68959;53.132;17.984;2023-04-24T06:32:39;99883.48;;;16.64;66.86
79378;BME280;68959;53.132;17.984;2023-04-24T06:35:07;99887.14;;;16.57;66.23
79378;BME280;68959;53.132;17.984;2023-04-24T06:37:36;99885.52;;;16.34;66.10
79378;BME280;68959;53.132;17.984;2023-04-24T06:40:03;99877.98;;;16.17;66.78
79378;BME280;68959;53.132;17.984;2023-04-24T06:42:30;99877.38;;;16.07;67.02
79378;BME280;68959;53.132;17.984;2023-04-24T06:44:57;99877.41;;;15.99;66.95
79378;BME280;68959;53.132;17.984;2023-04-24T06:47:23;99876.82;;;16.00;67.32
79378;BME280;68959;53.132;17.984;2023-04-24T06:49:50;99876.98;;;16.10;66.76
79378;BME280;68959;53.132;17.984;2023-04-24T06:52:19;99875.95;;;16.20;65.36
79378;BME280;68959;53.132;17.984;2023-04-24T06:54:45;99877.54;;;16.37;66.10
79378;BME280;68959;53.132;17.984;2023-04-24T06:57:12;99874.67;;;16.55;64.95
79378;BME280;68959;53.132;17.984;2023-04-24T06:59:39;99873.15;;;16.67;64.13
79378;BME280;68959;53.132;17.984;2023-04-24T07:02:05;99877.78;;;16.74;62.44
79378;BME280;68959;53.132;17.984;2023-04-24T07:04:32;99871.69;;;16.88;62.80
79378;BME280;68959;53.132;17.984;2023-04-24T07:06:59;99868.23;;;16.99;61.98
79378;BME280;68959;53.132;17.984;2023-04-24T07:09:26;99873.66;;;17.16;61.29
79378;BME280;68959;53.132;17.984;2023-04-24T07:11:53;99872.92;;;17.31;61.12
79378;BME280;68959;53.132;17.984;2023-04-24T07:14:20;99865.85;;;17.35;61.08
79378;BME280;68959;53.132;17.984;2023-04-24T07:16:47;99864.99;;;17.40;60.67
79378;BME280;68959;53.132;17.984;2023-04-24T07:19:13;99865.84;;;17.36;58.84
79378;BME280;68959;53.132;17.984;2023-04-24T07:21:42;99864.90;;;17.28;58.45
79378;BME280;68959;53.132;17.984;2023-04-24T07:24:08;99867.30;;;17.28;58.66
79378;BME280;68959;53.132;17.984;2023-04-24T07:26:37;99863.14;;;17.30;58.75
79378;BME280;68959;53.132;17.984;2023-04-24T07:29:04;99863.00;;;17.33;57.41
79378;BME280;68959;53.132;17.984;2023-04-24T07:31:32;99864.21;;;17.33;56.70
79378;BME280;68959;53.132;17.984;2023-04-24T07:33:58;99864.17;;;17.36;56.05
79378;BME280;68959;53.132;17.984;2023-04-24T07:36:25;99865.67;;;17.39;55.24
79378;BME280;68959;53.132;17.984;2023-04-24T07:38:54;99860.92;;;17.52;55.05
79378;BME280;68959;53.132;17.984;2023-04-24T07:41:21;99863.40;;;17.80;55.16
79378;BME280;68959;53.132;17.984;2023-04-24T07:43:47;99852.70;;;18.05;55.07
79378;BME280;68959;53.132;17.984;2023-04-24T07:46:14;99853.86;;;18.18;53.48
79378;BME280;68959;53.132;17.984;2023-04-24T07:48:41;99850.73;;;18.25;53.81
79378;BME280;68959;53.132;17.984;2023-04-24T07:51:08;99850.80;;;18.27;52.88
79378;BME280;68959;53.132;17.984;2023-04-24T07:53:37;99858.09;;;18.29;52.64
79378;BME280;68959;53.132;17.984;2023-04-24T07:56:05;99858.66;;;18.38;52.39
79378;BME280;68959;53.132;17.984;2023-04-24T07:58:32;99854.07;;;18.38;51.78
79378;BME280;68959;53.132;17.984;2023-04-24T08:00:58;99855.20;;;18.42;52.29
79378;BME280;68959;53.132;17.984;2023-04-24T08:03:25;99856.60;;;18.45;52.16
79378;BME280;68959;53.132;17.984;2023-04-24T08:05:51;99857.39;;;18.44;51.46
79378;BME280;68959;53.132;17.984;2023-04-24T08:08:21;99853.17;;;18.54;51.25
79378;BME280;68959;53.132;17.984;2023-04-24T08:10:49;99848.77;;;18.72;50.59
79378;BME280;68959;53.132;17.984;2023-04-24T08:13:16;99850.63;;;19.10;50.20
79378;BME280;68959;53.132;17.984;2023-04-24T08:15:43;99852.41;;;19.46;48.80
79378;BME280;68959;53.132;17.984;2023-04-24T08:18:09;99854.39;;;19.92;48.06
79378;BME280;68959;53.132;17.984;2023-04-24T08:20:38;99849.30;;;20.30;47.39
79378;BME280;68959;53.132;17.984;2023-04-24T08:23:04;99850.92;;;20.71;47.21
79378;BME280;68959;53.132;17.984;2023-04-24T08:25:31;99846.85;;;21.30;45.37
79378;BME280;68959;53.132;17.984;2023-04-24T08:27:58;99843.97;;;21.24;44.07
79378;BME280;68959;53.132;17.984;2023-04-24T08:30:25;99845.91;;;21.00;43.61
79378;BME280;68959;53.132;17.984;2023-04-24T08:32:51;99840.25;;;20.59;43.99
79378;BME280;68959;53.132;17.984;2023-04-24T08:35:18;99839.93;;;20.23;44.53
79378;BME280;68959;53.132;17.984;2023-04-24T08:37:45;99843.99;;;19.95;45.59
79378;BME280;68959;53.132;17.984;2023-04-24T08:40:13;99843.14;;;19.83;45.29
79378;BME280;68959;53.132;17.984;2023-04-24T08:42:44;99842.46;;;19.66;45.23
79378;BME280;68959;53.132;17.984;2023-04-24T08:45:12;99841.66;;;19.56;44.93
79378;BME280;68959;53.132;17.984;2023-04-24T08:47:40;99838.00;;;19.48;45.63
79378;BME280;68959;53.132;17.984;2023-04-24T08:50:08;99840.36;;;19.42;45.68
79378;BME280;68959;53.132;17.984;2023-04-24T08:52:35;99844.16;;;19.32;44.81
79378;BME280;68959;53.132;17.984;2023-04-24T08:55:02;99847.39;;;19.39;44.95
79378;BME280;68959;53.132;17.984;2023-04-24T08:57:30;99842.42;;;19.40;45.28
79378;BME280;68959;53.132;17.984;2023-04-24T08:59:58;99843.27;;;19.59;45.54
79378;BME280;68959;53.132;17.984;2023-04-24T09:02:25;99840.07;;;19.56;44.93
79378;BME280;68959;53.132;17.984;2023-04-24T09:04:53;99850.32;;;19.36;45.05
79378;BME280;68959;53.132;17.984;2023-04-24T09:07:22;99842.63;;;19.29;45.69
79378;BME280;68959;53.132;17.984;2023-04-24T09:09:51;99841.45;;;19.32;46.47
79378;BME280;68959;53.132;17.984;2023-04-24T09:12:19;99852.27;;;19.23;45.87
79378;BME280;68959;53.132;17.984;2023-04-24T09:14:46;99849.52;;;19.06;46.67
79378;BME280;68959;53.132;17.984;2023-04-24T09:17:13;99853.13;;;18.98;46.79
79378;BME280;68959;53.132;17.984;2023-04-24T09:19:40;99852.73;;;19.01;47.23
79378;BME280;68959;53.132;17.984;2023-04-24T09:22:08;99862.61;;;18.97;47.32
79378;BME280;68959;53.132;17.984;2023-04-24T09:24:35;99856.83;;;18.97;47.57
79378;BME280;68959;53.132;17.984;2023-04-24T09:27:03;99850.89;;;19.08;47.39
79378;BME280;68959;53.132;17.984;2023-04-24T09:29:30;99853.46;;;19.11;47.37
79378;BME280;68959;53.132;17.984;2023-04-24T09:31:58;99852.22;;;19.22;47.68
79378;BME280;68959;53.132;17.984;2023-04-24T09:34:26;99845.45;;;19.35;47.76
79378;BME280;68959;53.132;17.984;2023-04-24T09:36:54;99844.89;;;19.46;47.46
79378;BME280;68959;53.132;17.984;2023-04-24T09:39:21;99840.84;;;19.65;47.27
79378;BME280;68959;53.132;17.984;2023-04-24T09:41:52;99837.68;;;19.77;46.40
79378;BME280;68959;53.132;17.984;2023-04-24T09:44:23;99834.73;;;20.07;45.86
79378;BME280;68959;53.132;17.984;2023-04-24T09:46:55;99833.77;;;20.49;44.90
79378;BME280;68959;53.132;17.984;2023-04-24T09:49:25;99828.76;;;21.07;43.26
79378;BME280;68959;53.132;17.984;2023-04-24T09:52:09;99821.69;;;21.42;42.88
79378;BME280;68959;53.132;17.984;2023-04-24T09:54:37;99821.11;;;21.52;41.90
79378;BME280;68959;53.132;17.984;2023-04-24T09:57:04;99820.38;;;21.52;42.16
79378;BME280;68959;53.132;17.984;2023-04-24T09:59:31;99818.41;;;21.85;42.26
79378;BME280;68959;53.132;17.984;2023-04-24T10:01:59;99813.88;;;22.41;41.05
79378;BME280;68959;53.132;17.984;2023-04-24T10:04:27;99811.77;;;22.45;40.66
79378;BME280;68959;53.132;17.984;2023-04-24T10:06:56;99804.79;;;22.33;41.18
79378;BME280;68959;53.132;17.984;2023-04-24T10:09:26;99800.83;;;22.16;40.84
79378;BME280;68959;53.132;17.984;2023-04-24T10:11:54;99800.81;;;22.00;41.26
79378;BME280;68959;53.132;17.984;2023-04-24T10:14:23;99803.02;;;21.98;40.62
79378;BME280;68959;53.132;17.984;2023-04-24T10:16:53;99796.63;;;22.15;40.58
79378;BME280;68959;53.132;17.984;2023-04-24T10:19:20;99785.75;;;22.35;40.31
79378;BME280;68959;53.132;17.984;2023-04-24T10:21:47;99777.89;;;22.31;39.90
79378;BME280;68959;53.132;17.984;2023-04-24T10:24:18;99787.98;;;22.86;39.35
79378;BME280;68959;53.132;17.984;2023-04-24T10:26:47;99794.77;;;23.71;37.26
79378;BME280;68959;53.132;17.984;2023-04-24T10:29:17;99792.11;;;23.84;36.88
79378;BME280;68959;53.132;17.984;2023-04-24T10:31:45;99788.53;;;24.11;37.54
79378;BME280;68959;53.132;17.984;2023-04-24T10:34:15;99790.46;;;24.44;36.55
79378;BME280;68959;53.132;17.984;2023-04-24T10:36:46;99790.36;;;24.82;36.15
79378;BME280;68959;53.132;17.984;2023-04-24T10:39:14;99786.93;;;25.23;34.73
79378;BME280;68959;53.132;17.984;2023-04-24T10:41:42;99784.33;;;26.36;32.84
79378;BME280;68959;53.132;17.984;2023-04-24T10:44:14;99779.26;;;28.06;30.60
79378;BME280;68959;53.132;17.984;2023-04-24T10:46:45;99785.02;;;29.21;29.08
79378;BME280;68959;53.132;17.984;2023-04-24T10:49:14;99777.20;;;30.34;27.64
79378;BME280;68959;53.132;17.984;2023-04-24T10:51:51;99767.38;;;31.28;26.94
79378;BME280;68959;53.132;17.984;2023-04-24T10:54:33;99768.30;;;32.35;25.16
79378;BME280;68959;53.132;17.984;2023-04-24T10:59:47;99771.95;;;31.90;24.40
79378;BME280;68959;53.132;17.984;2023-04-24T11:02:15;99776.82;;;31.08;24.26
79378;BME280;68959;53.132;17.984;2023-04-24T11:04:42;99777.85;;;30.40;25.06
79378;BME280;68959;53.132;17.984;2023-04-24T11:07:10;99780.84;;;29.82;26.10
79378;BME280;68959;53.132;17.984;2023-04-24T11:09:38;99778.91;;;28.61;27.42
79378;BME280;68959;53.132;17.984;2023-04-24T11:12:08;99778.27;;;27.73;28.81
79378;BME280;68959;53.132;17.984;2023-04-24T11:15:00;99777.95;;;27.70;29.51
79378;BME280;68959;53.132;17.984;2023-04-24T11:17:35;99785.48;;;26.65;30.97
79378;BME280;68959;53.132;17.984;2023-04-24T11:20:06;99779.95;;;26.89;30.77
79378;BME280;68959;53.132;17.984;2023-04-24T11:22:35;99783.91;;;26.52;31.64
79378;BME280;68959;53.132;17.984;2023-04-24T11:25:03;99796.77;;;25.51;33.55
79378;BME280;68959;53.132;17.984;2023-04-24T11:27:32;99804.41;;;24.86;35.42
79378;BME280;68959;53.132;17.984;2023-04-24T11:30:00;99811.92;;;24.86;35.84
79378;BME280;68959;53.132;17.984;2023-04-24T11:32:43;99798.53;;;24.97;35.57
79378;BME280;68959;53.132;17.984;2023-04-24T11:35:19;99795.81;;;25.20;35.52
79378;BME280;68959;53.132;17.984;2023-04-24T11:37:52;99798.47;;;25.40;35.16
79378;BME280;68959;53.132;17.984;2023-04-24T11:40:21;99801.09;;;25.04;35.52
79378;BME280;68959;53.132;17.984;2023-04-24T11:42:50;99804.39;;;25.42;34.95
79378;BME280;68959;53.132;17.984;2023-04-24T11:47:47;99802.38;;;25.44;34.56
79378;BME280;68959;53.132;17.984;2023-04-24T11:50:15;99803.79;;;25.18;35.00
79378;BME280;68959;53.132;17.984;2023-04-24T11:52:44;99803.77;;;26.10;33.43
79378;BME280;68959;53.132;17.984;2023-04-24T11:57:52;99785.33;;;28.06;30.73
79378;BME280;68959;53.132;17.984;2023-04-24T12:00:27;99779.50;;;30.00;27.78
79378;BME280;68959;53.132;17.984;2023-04-24T12:03:24;99778.46;;;30.93;26.22
79378;BME280;68959;53.132;17.984;2023-04-24T12:05:51;99780.05;;;30.21;25.84
79378;BME280;68959;53.132;17.984;2023-04-24T12:08:29;99794.21;;;29.47;26.45
79378;BME280;68959;53.132;17.984;2023-04-24T12:10:56;99777.72;;;29.09;26.47
79378;BME280;68959;53.132;17.984;2023-04-24T12:13:25;99779.27;;;28.13;27.68
79378;BME280;68959;53.132;17.984;2023-04-24T12:15:52;99786.20;;;27.52;28.53
79378;BME280;68959;53.132;17.984;2023-04-24T12:18:22;99793.89;;;25.99;30.83
79378;BME280;68959;53.132;17.984;2023-04-24T12:20:49;99794.16;;;25.08;32.28
79378;BME280;68959;53.132;17.984;2023-04-24T12:23:16;99791.23;;;24.33;33.81
79378;BME280;68959;53.132;17.984;2023-04-24T12:25:44;99791.31;;;24.70;34.37
79378;BME280;68959;53.132;17.984;2023-04-24T12:28:12;99788.96;;;24.94;34.04
79378;BME280;68959;53.132;17.984;2023-04-24T12:30:47;99780.30;;;24.76;34.72
79378;BME280;68959;53.132;17.984;2023-04-24T12:33:19;99777.88;;;24.69;35.35
79378;BME280;68959;53.132;17.984;2023-04-24T12:35:48;99779.99;;;25.03;34.74
79378;BME280;68959;53.132;17.984;2023-04-24T12:38:22;99772.23;;;24.68;35.07
79378;BME280;68959;53.132;17.984;2023-04-24T12:41:05;99767.76;;;24.09;36.29
79378;BME280;68959;53.132;17.984;2023-04-24T12:43:32;99771.27;;;23.74;37.28
79378;BME280;68959;53.132;17.984;2023-04-24T12:45:59;99773.00;;;23.66;37.62
79378;BME280;68959;53.132;17.984;2023-04-24T12:48:27;99767.86;;;23.45;38.23
79378;BME280;68959;53.132;17.984;2023-04-24T12:50:54;99763.84;;;23.45;37.79
79378;BME280;68959;53.132;17.984;2023-04-24T12:53:23;99768.80;;;24.08;37.46
79378;BME280;68959;53.132;17.984;2023-04-24T12:55:49;99770.48;;;24.56;36.97
79378;BME280;68959;53.132;17.984;2023-04-24T12:58:22;99764.11;;;24.80;36.83
79378;BME280;68959;53.132;17.984;2023-04-24T13:00:49;99751.10;;;24.74;37.02
79378;BME280;68959;53.132;17.984;2023-04-24T13:03:15;99762.00;;;24.56;37.44